Catalpa, Virginia
Current Conditions -  °F | °C
As of 4:55 PM on Tuesday 25 Nov 2014 (Local Time) from KCJR Reporting Station
Clear Clear  
Wind Chill: 52°   Ceiling: Unl
Heat Index: 52°   Visibility: 10mi
Dew Point: 43°   Wind: 0mph
Humidity: 71%   Direction: NA
Pressure: 30.05"   Gusts: NA
Location:  38.467°N, 77.9818°W
Report Text: KCJR 252155Z AUTO 00000KT 10SM CLR 11/06 A3005 RMK AO2
Loading
Personal Weather Stations






























Interactive Weather Map New forecast layout! Learn more

10-Day Weather Forecast

Advertisements
Track Severe Weather on mobile